Big Timber, Montana
Current Conditions -  °F | °C
As of 8:53 PM on Sunday 25 Jan 2015 (Local Time) from KLVM Reporting Station
Clear Clear  
Wind Chill: 54°   Ceiling: Unl
Heat Index: 54°   Visibility: 10mi
Dew Point: 26°   Wind: 24mph
Humidity: 34%   Direction: 230°SW
Pressure: 30.2"   Gusts: 36mph
Location:  45.83°N, 109.96°W
Report Text: KLVM 260353Z AUTO 23021G31KT 10SM CLR 12/M03 A3020 RMK AO2 PK WND 23033/0325 SLP215 T01221033
Loading
Personal Weather Stations






























Interactive Weather Map New forecast layout! Learn more

10-Day Weather Forecast

Advertisements
Track Severe Weather on mobile